Crosskeys, Virginia
Current Conditions -  °F | °C
As of 7:35 PM on Monday 24 Nov 2014 (Local Time) from KVBW Reporting Station
Clear Clear  
Wind Chill: 62°   Ceiling: Unl
Heat Index: 62°   Visibility: 10mi
Dew Point: 50°   Wind: 10mph
Humidity: 65%   Direction: 190°S
Pressure: 29.72"   Gusts: NA
Location:  38.339°N, 78.8869°W
Report Text: KVBW 250035Z AUTO 19009KT 10SM CLR 17/10 A2972 RMK AO2 T01670100
Loading
Personal Weather Stations






























Interactive Weather Map New forecast layout! Learn more

10-Day Weather Forecast

Advertisements
Track Severe Weather on mobile